Quick Links (Output Below):   Max & Min Temps   /   Climate Reports   /   Zone Forecasts
River Forecasts   /   Forestry Forecasts   /   Aviation Forecasts   /   Radars   /   Features

Terminal Aerodrome Forecast (Fayetteville)

Pick a Site:
Arkadelphia | El Dorado | Fayetteville | Fort Smith | Harrison | Highfill | Hot Springs | Jonesboro
Little Rock | Monticello | Mountain Home | Pine Bluff | Texarkana
 Forecast 

KFYV 171857Z 1719/1818 23011KT P6SM SCT025 BKN035
     FM172100 24010KT P6SM VCTS BKN035CB
     FM180100 VRB06KT P6SM VCTS BKN040CB BKN250 PROB30 1804/1808 3SM
      TSRA BKN025CB
     FM180800 00000KT 3SM BR SCT010
     FM181400 VRB05KT P6SM SCT035=


 Latest METARs (Observations) 
How to Decode METARs
21Z KFYV 172053Z 18009KT 10SM SCT029 BKN047 27/22 A2992 RMK AO2 LTG
         DSNT NE SLP118 T02720217 58015
         
20Z KFYV 171953Z 20008KT 10SM BKN031 28/22 A2994 RMK AO2 SLP124
         T02830222
         
19Z KFYV 171853Z 22008G14KT 10SM SCT026 BKN032 BKN040 27/22 A2995 RMK
         AO2 SLP131 T02720217
         
18Z KFYV 171753Z 21012G16KT 10SM FEW026 27/22 A2997 RMK AO2 SLP134
         T02720217 10272 20194 56012
         
17Z KFYV 171653Z 22010KT 10SM CLR 27/22 A2998 RMK AO2 SLP139
         T02670217
         
16Z KFYV 171553Z 21012KT 10SM CLR 26/21 A2999 RMK AO2 SLP142
         T02560206
         
15Z KFYV 171453Z 21011KT 10SM CLR 23/20 A3000 RMK AO2 SLP148 T02280200
         53003
         
14Z KFYV 171353Z 20011KT 10SM CLR 22/20 A2999 RMK AO2 SLP144
         T02170200
         
13Z KFYV 171253Z 22003KT 9SM BKN006 20/19 A2999 RMK AO2 SLP145
         T02000194
         
12Z KFYV 171153Z 20006KT 9SM OVC006 19/19 A2999 RMK AO2 SLP144
         T01940194 10200 20167 56011
         
***** Today's Observations (Above) *****


Back to Main Page
http://www.srh.noaa.gov/lzk/qfcst.php

USA.gov is the U.S. government's official web portal to all federal, state and local government web resources and services.